Mato Rico, Brazil
Current Conditions -  °F | °C
As of 12:00 PM on Friday 31 Oct 2014 (Local Time) from SBCA Reporting Station
Few Clouds Few Clouds  
Wind Chill: 77°   Ceiling: Unl
Heat Index: 79°   Visibility: 6mi
Dew Point: 64°   Wind: 17mph
Humidity: 65%   Direction: 10°N
Pressure: 29.97"   Gusts: NA
Location:  24.71°S, 52.15°W
Report Text: SBCA 311400Z 01015KT 9999 FEW010 25/18 Q1015
Loading
Personal Weather Stations






























Interactive Weather Map
Tropical Storm Tracking
New forecast layout! Learn more

10-Day Weather Forecast

Advertisements
Track Severe Weather on mobile